This is the latest recevied weather packets stored in our database for station/object KG6LPP. If no packets are shown the sender has not sent any weather packets the latest 10 day(s).
| Time | Temp. | Humidity | Pressure | Rain* | Wind** | Luminosity | Snow |
|---|---|---|---|---|---|---|---|
| 1777617017 | 8.33° C | 73% | 1005.2 hPa | 0 mm | - | 0 W/m² | - |
| 1777613459 | 8.89° C | 67% | 1004.6 hPa | 0 mm | - | 0 W/m² | - |
| 1777608051 | 10° C | 62% | 1004 hPa | 0 mm | - | 0 W/m² | - |
| 1777598117 | 14.44° C | 41% | 1000.1 hPa | 0 mm | - | 5 W/m² | - |
| 1777596316 | 15.56° C | 38% | 999.8 hPa | 0 mm | - | 14 W/m² | - |
| 1777594509 | 16.67° C | 36% | 999.5 hPa | 0 mm | - | 54 W/m² | - |
| 1777592702 | 17.78° C | 33% | 999 hPa | 0 mm | - | 49 W/m² | - |
| 1777591856 | 18.89° C | 29% | 998.8 hPa | 0 mm | - | 81 W/m² | - |
| 1777587354 | 20° C | 16% | 999.1 hPa | 0 mm | - | 188 W/m² | - |
| 1777584653 | 19.44° C | 16% | 999.8 hPa | 0 mm | - | 142 W/m² | - |
| 1777581942 | 20° C | 15% | 1000.4 hPa | 0 mm | - | 111 W/m² | - |
| 1777579240 | 21.11° C | 16% | 1000.6 hPa | 0 mm | - | 153 W/m² | - |
| 1777576538 | 20° C | 18% | 1000.8 hPa | 0 mm | - | 178 W/m² | - |
| 1777575639 | 17.78° C | 27% | 1001 hPa | 0 mm | - | 461 W/m² | - |
| 1777574737 | 17.22° C | 33% | 1001.1 hPa | 0 mm | - | 176 W/m² | - |
| 1777560316 | 8.33° C | 65% | 1003.8 hPa | 0 mm | - | 151 W/m² | - |
| 1777559418 | 8.33° C | 66% | 1004.1 hPa | 0 mm | - | 121 W/m² | - |
| 1777558516 | 7.78° C | 66% | 1004.4 hPa | 0 mm | - | 81 W/m² | - |
| 1777555815 | 7.78° C | 67% | 1004.3 hPa | 0 mm | - | 42 W/m² | - |
| 1777550408 | 8.89° C | 59% | 1004 hPa | 0 mm | - | 0 W/m² | - |
| 1777546814 | 9.44° C | 45% | 1004 hPa | 0 mm | - | 0 W/m² | - |
| 1777544159 | 8.89° C | 24% | 1003.9 hPa | 0 mm | - | 0 W/m² | - |
| 1777541480 | 9.44° C | 22% | 1003.5 hPa | 0 mm | - | 0 W/m² | - |
| 1777539652 | 10° C | 22% | 1003.6 hPa | 0 mm | - | 0 W/m² | - |
| 1777536953 | 10.56° C | 22% | 1004 hPa | 0 mm | - | 0 W/m² | - |
* Rain latest hour (hover to see other rain measurements)
** Current wind speed in m/s (hover to see current wind gust speed)